Time;durP1;ratioP1;P1;durP2;ratioP2;P2;SDS_P1;SDS_P2;PMS_P1;PMS_P2;Temp;Humidity;BMP_temperature;BMP_pressure;BME280_temperature;BME280_humidity;BME280_pressure;Samples;Min_cycle;Max_cycle;Signal;HPM_P1;HPM_P2
2021/07/23 15:43:25;;;;;;;;;;;;;;;26.99;41.28;100451.31;5105472;27;1414;-69
2021/07/23 15:45:51;;;;;;;;;;;;;;;27.01;40.71;100446.66;5087528;28;1466;-77
2021/07/23 15:48:18;;;;;;;;;;;;;;;26.98;40.62;100438.94;5084298;28;1578;-71
2021/07/23 15:50:45;;;;;;;;;;;;;;;26.96;40.90;100433.72;5083758;28;1216;-71
2021/07/23 15:53:11;;;;;;;;;;;;;;;27.01;40.79;100435.97;5081675;28;1182;-69
2021/07/23 15:55:38;;;;;;;;;;;;;;;27.02;40.26;100424.28;5084529;28;1573;-69
2021/07/23 15:58:05;;;;;;;;;;;;;;;27.03;40.20;100418.78;5084749;28;1247;-70
2021/07/23 16:00:31;;;;;;;;;;;;;;;27.03;40.21;100424.13;5072409;28;1363;-69
2021/07/23 16:02:58;;;;;;;;;;;;;;;27.05;39.36;100419.47;5085426;28;1913;-67
2021/07/23 16:05:25;;;;;;;;;;;;;;;27.02;39.32;100410.91;5085404;28;1213;-70
2021/07/23 16:07:52;;;;;;;;;;;;;;;26.99;38.59;100417.38;5085722;28;932;-69
2021/07/23 16:10:19;;;;;;;;;;;;;;;26.98;39.24;100405.03;5084934;28;1300;-69
2021/07/23 16:12:46;;;;;;;;;;;;;;;26.99;39.23;100400.53;5075158;28;1303;-69
2021/07/23 16:15:13;;;;;;;;;;;;;;;26.97;38.76;100400.66;5073083;28;1258;-69
2021/07/23 16:17:39;;;;;;;;;;;;;;;26.97;38.21;100399.81;5067014;28;1226;-69
2021/07/23 16:20:06;;;;;;;;;;;;;;;26.96;38.16;100395.47;5084752;28;1326;-68
2021/07/23 16:22:33;;;;;;;;;;;;;;;26.94;38.46;100394.78;5080322;28;1973;-67
2021/07/23 16:25:00;;;;;;;;;;;;;;;26.95;38.40;100393.78;5084525;28;1275;-69
2021/07/23 16:27:27;;;;;;;;;;;;;;;26.96;38.19;100393.63;5084766;27;1209;-67
2021/07/23 16:29:54;;;;;;;;;;;;;;;26.94;38.70;100397.44;5082271;28;1295;-64
2021/07/23 16:32:20;;;;;;;;;;;;;;;26.92;38.56;100388.75;5084872;28;1025;-65
2021/07/23 16:34:48;;;;;;;;;;;;;;;26.92;38.33;100388.75;5084467;28;1240;-66
2021/07/23 16:37:15;;;;;;;;;;;;;;;26.91;38.17;100379.88;5084182;28;1059;-65
2021/07/23 16:39:42;;;;;;;;;;;;;;;26.91;38.10;100384.38;5083924;28;1364;-66
2021/07/23 16:42:09;;;;;;;;;;;;;;;26.91;38.11;100387.03;5094166;28;1914;-67
2021/07/23 16:44:39;;;;;;;;;;;;;;;26.87;37.74;100380.34;5104619;28;1184;-67
2021/07/23 16:47:05;;;;;;;;;;;;;;;26.88;37.50;100376.66;5105041;28;1134;-66
2021/07/23 16:49:34;;;;;;;;;;;;;;;26.85;37.99;100383.13;5104417;28;1288;-66
2021/07/23 16:52:02;;;;;;;;;;;;;;;26.84;37.80;100377.97;5103341;28;1522;-66
2021/07/23 16:54:28;;;;;;;;;;;;;;;26.81;37.76;100380.94;5091275;28;1279;-66
2021/07/23 16:56:55;;;;;;;;;;;;;;;26.85;38.20;100375.13;5090963;28;1217;-68
2021/07/23 16:59:22;;;;;;;;;;;;;;;26.85;38.43;100382.28;5090333;28;1270;-70
2021/07/23 17:01:49;;;;;;;;;;;;;;;26.97;38.52;100387.28;5090814;28;1905;-66
2021/07/23 17:04:16;;;;;;;;;;;;;;;27.12;39.10;100384.97;5080481;28;1357;-66
2021/07/23 17:06:44;;;;;;;;;;;;;;;27.25;40.90;100379.25;5081338;28;1338;-66
2021/07/23 17:09:10;;;;;;;;;;;;;;;27.31;40.56;100389.34;5079821;28;1343;-68
2021/07/23 17:11:37;;;;;;;;;;;;;;;27.45;43.57;100381.66;5090665;28;1173;-68
2021/07/23 17:14:04;;;;;;;;;;;;;;;27.49;43.84;100380.38;5072327;28;1422;-66
2021/07/23 17:16:31;;;;;;;;;;;;;;;27.51;42.79;100390.94;5090758;28;1232;-65
2021/07/23 17:18:58;;;;;;;;;;;;;;;27.57;44.61;100379.63;5081823;28;1246;-66
2021/07/23 17:21:25;;;;;;;;;;;;;;;27.60;46.10;100380.13;5081491;28;1986;-66
2021/07/23 17:23:51;;;;;;;;;;;;;;;27.58;46.06;100371.44;5061136;28;1812;-64
2021/07/23 17:26:19;;;;;;;;;;;;;;;27.66;45.92;100368.00;5070934;28;1261;-66
2021/07/23 17:28:46;;;;;;;;;;;;;;;27.69;47.46;100367.69;5071462;28;1303;-66
2021/07/23 17:31:12;;;;;;;;;;;;;;;27.78;48.34;100361.41;5089665;28;1355;-66
2021/07/23 17:33:39;;;;;;;;;;;;;;;27.80;48.01;100348.72;5090083;28;1362;-68
2021/07/23 17:36:07;;;;;;;;;;;;;;;27.81;48.53;100350.41;5071756;28;1194;-68
2021/07/23 17:38:34;;;;;;;;;;;;;;;27.85;49.68;100356.25;5081559;28;1259;-67
2021/07/23 17:41:03;;;;;;;;;;;;;;;27.87;48.51;100354.28;5078570;28;1401;-68
2021/07/23 17:43:35;;;;;;;;;;;;;;;27.91;49.67;100352.97;5090429;28;1922;-69
2021/07/23 17:48:32;;;;;;;;;;;;;;;27.96;50.13;100348.00;5087777;28;1265;-70
2021/07/23 17:50:58;;;;;;;;;;;;;;;28.00;50.52;100354.69;5089835;28;1381;-70
2021/07/23 17:53:25;;;;;;;;;;;;;;;28.00;50.99;100350.19;5089618;28;1271;-69
2021/07/23 17:55:52;;;;;;;;;;;;;;;28.00;50.72;100352.88;5080236;28;1252;-68
2021/07/23 17:58:18;;;;;;;;;;;;;;;28.04;53.76;100358.75;5080122;28;1287;-69
2021/07/23 18:00:45;;;;;;;;;;;;;;;28.12;53.89;100356.16;5062233;28;1708;-69
2021/07/23 18:03:12;;;;;;;;;;;;;;;28.13;54.50;100366.72;5078080;28;1912;-69
2021/07/23 18:05:39;;;;;;;;;;;;;;;28.13;54.94;100361.38;5079261;28;1347;-69
2021/07/23 18:08:05;;;;;;;;;;;;;;;28.16;55.73;100363.75;5080594;28;1209;-69
2021/07/23 18:10:32;;;;;;;;;;;;;;;28.16;55.07;100354.84;5079304;28;1307;-69
2021/07/23 18:12:59;;;;;;;;;;;;;;;28.19;56.15;100358.06;5078993;28;1279;-69
2021/07/23 18:15:26;;;;;;;;;;;;;;;28.19;56.34;100351.88;5080427;28;1275;-68
2021/07/23 18:17:53;;;;;;;;;;;;;;;28.20;56.77;100350.88;5079257;28;1268;-69
2021/07/23 18:20:20;;;;;;;;;;;;;;;28.19;57.04;100355.38;5070852;28;1343;-69
2021/07/23 18:22:47;;;;;;;;;;;;;;;28.24;57.43;100365.63;5089314;28;1917;-68
2021/07/23 18:25:14;;;;;;;;;;;;;;;28.24;55.41;100362.94;5088057;28;1268;-68
2021/07/23 18:27:42;;;;;;;;;;;;;;;28.24;56.19;100364.78;5093503;28;1713;-67
2021/07/23 18:30:10;;;;;;;;;;;;;;;28.26;57.39;100365.47;5086389;28;1273;-67
2021/07/23 18:32:36;;;;;;;;;;;;;;;28.27;57.79;100362.63;5089487;28;1308;-68
2021/07/23 18:35:03;;;;;;;;;;;;;;;28.28;56.90;100364.31;5077736;28;1307;-69
2021/07/23 18:37:30;;;;;;;;;;;;;;;28.26;55.05;100363.63;5079964;28;1252;-67
2021/07/23 18:39:56;;;;;;;;;;;;;;;28.37;57.82;100370.53;5078296;28;1315;-64
2021/07/23 18:42:23;;;;;;;;;;;;;;;28.35;56.29;100362.69;5077276;28;1975;-63
2021/07/23 18:44:50;;;;;;;;;;;;;;;28.35;55.01;100354.66;5087013;28;1303;-61
2021/07/23 18:47:16;;;;;;;;;;;;;;;28.32;56.39;100349.59;5087626;28;1145;-64
2021/07/23 18:49:45;;;;;;;;;;;;;;;28.34;56.29;100352.13;5092081;28;1315;-64
2021/07/23 18:52:30;;;;;;;;;;;;;;;28.36;55.96;100340.25;5085976;28;1292;-65
2021/07/23 18:54:58;;;;;;;;;;;;;;;28.37;55.76;100341.94;5087598;28;1346;-64
2021/07/23 18:57:25;;;;;;;;;;;;;;;28.40;56.58;100340.75;5091875;28;1319;-65
2021/07/23 18:59:54;;;;;;;;;;;;;;;28.40;54.15;100341.59;5087994;28;1259;-68
2021/07/23 19:02:23;;;;;;;;;;;;;;;28.40;54.39;100343.44;5077458;28;1909;-67
2021/07/23 19:04:52;;;;;;;;;;;;;;;28.41;52.55;100343.31;5085551;28;1288;-70
2021/07/23 19:07:21;;;;;;;;;;;;;;;28.39;52.21;100339.09;5088028;28;1255;-66
2021/07/23 19:09:51;;;;;;;;;;;;;;;28.36;52.29;100334.88;5085681;28;1386;-67
2021/07/23 19:12:19;;;;;;;;;;;;;;;28.38;51.20;100337.41;5088125;28;1217;-68
2021/07/23 19:14:46;;;;;;;;;;;;;;;28.36;51.10;100340.25;5057723;28;1465;-64
2021/07/23 19:17:13;;;;;;;;;;;;;;;28.38;50.84;100348.97;5088487;28;1229;-64
2021/07/23 19:19:40;;;;;;;;;;;;;;;28.40;49.10;100338.94;5088011;28;1284;-65
2021/07/23 19:22:07;;;;;;;;;;;;;;;28.37;49.07;100338.41;5088367;28;1910;-65
2021/07/23 19:24:34;;;;;;;;;;;;;;;28.35;49.25;100338.59;5088450;28;1370;-63
2021/07/23 19:27:04;;;;;;;;;;;;;;;28.37;48.58;100335.72;5087916;28;1237;-63
2021/07/23 19:29:30;;;;;;;;;;;;;;;28.35;48.30;100327.88;5087399;28;1399;-63
2021/07/23 19:31:57;;;;;;;;;;;;;;;28.32;47.58;100328.19;5076720;28;1189;-63
2021/07/23 19:34:24;;;;;;;;;;;;;;;28.32;48.13;100327.34;5087268;28;1260;-65
2021/07/23 19:36:51;;;;;;;;;;;;;;;28.32;47.01;100333.53;5087427;28;1304;-65
2021/07/23 19:39:19;;;;;;;;;;;;;;;28.37;47.03;100325.00;5087906;28;1300;-62
2021/07/23 19:41:47;;;;;;;;;;;;;;;28.34;47.38;100315.47;5085753;28;1244;-62
2021/07/23 19:44:14;;;;;;;;;;;;;;;28.35;47.49;100319.84;5085082;28;1914;-63
2021/07/23 19:46:40;;;;;;;;;;;;;;;28.33;47.43;100332.53;5087920;28;1256;-62
2021/07/23 19:49:07;;;;;;;;;;;;;;;28.32;48.16;100328.19;5076729;28;1240;-65
2021/07/23 19:51:34;;;;;;;;;;;;;;;28.33;48.45;100329.84;5078503;28;1279;-63
2021/07/23 19:54:03;;;;;;;;;;;;;;;28.36;48.06;100329.53;5078068;28;1248;-63
2021/07/23 19:56:30;;;;;;;;;;;;;;;28.33;48.13;100337.88;5087695;28;1315;-63
2021/07/23 19:58:57;;;;;;;;;;;;;;;28.39;48.30;100339.91;5077595;28;1350;-63
2021/07/23 20:01:23;;;;;;;;;;;;;;;28.39;48.57;100331.88;5078305;28;1240;-64
2021/07/23 20:03:54;;;;;;;;;;;;;;;28.40;48.67;100330.91;5076059;28;1979;-66
2021/07/23 20:06:25;;;;;;;;;;;;;;;28.42;48.86;100328.06;5076858;28;1280;-66
2021/07/23 20:08:52;;;;;;;;;;;;;;;28.43;48.88;100335.94;5086408;28;1523;-64
2021/07/23 20:11:19;;;;;;;;;;;;;;;28.43;48.80;100343.97;5087662;28;1321;-65
2021/07/23 20:13:45;;;;;;;;;;;;;;;28.43;49.08;100343.97;5087911;28;1291;-66
2021/07/23 20:16:12;;;;;;;;;;;;;;;28.48;49.15;100343.50;5087865;28;1414;-67
2021/07/23 20:18:39;;;;;;;;;;;;;;;28.48;49.69;100346.19;5087793;28;1372;-65
2021/07/23 20:21:05;;;;;;;;;;;;;;;28.48;49.71;100355.06;5087913;28;1220;-61
2021/07/23 20:23:32;;;;;;;;;;;;;;;28.46;50.32;100359.72;5076524;28;1910;-66
2021/07/23 20:25:59;;;;;;;;;;;;;;;28.47;50.36;100373.97;5078711;28;1256;-63
2021/07/23 20:28:25;;;;;;;;;;;;;;;28.48;50.09;100383.69;5088678;28;1298;-63
2021/07/23 20:30:52;;;;;;;;;;;;;;;28.46;50.25;100389.19;5091174;28;1287;-66
2021/07/23 20:33:19;;;;;;;;;;;;;;;28.43;49.92;100378.78;5073056;28;1382;-63
2021/07/23 20:35:45;;;;;;;;;;;;;;;28.45;50.38;100373.28;5080569;28;1296;-63
2021/07/23 20:38:13;;;;;;;;;;;;;;;28.45;50.12;100379.50;5082063;28;1316;-63
2021/07/23 20:40:39;;;;;;;;;;;;;;;28.44;50.24;100380.50;5081124;28;1335;-63
2021/07/23 20:43:06;;;;;;;;;;;;;;;28.43;49.68;100378.78;5097240;28;1887;-63
2021/07/23 20:45:34;;;;;;;;;;;;;;;28.46;49.44;100388.34;5088679;28;1245;-63
2021/07/23 20:48:02;;;;;;;;;;;;;;;28.45;49.34;100389.38;5091454;28;1217;-63
2021/07/23 20:50:47;;;;;;;;;;;;;;;28.44;48.87;100385.84;5090006;28;1256;-65
2021/07/23 20:53:14;;;;;;;;;;;;;;;28.43;48.81;100381.47;5073004;28;1225;-63
2021/07/23 20:55:40;;;;;;;;;;;;;;;28.43;48.29;100378.78;5090909;28;1237;-64
2021/07/23 20:58:07;;;;;;;;;;;;;;;28.47;48.32;100379.31;5091429;28;1185;-63
2021/07/23 21:00:33;;;;;;;;;;;;;;;28.50;48.58;100385.22;5091082;28;1307;-64
2021/07/23 21:03:01;;;;;;;;;;;;;;;28.49;48.40;100380.84;5091120;28;1977;-64
2021/07/23 21:05:29;;;;;;;;;;;;;;;28.47;48.65;100382.84;5079817;28;1382;-61
2021/07/23 21:07:56;;;;;;;;;;;;;;;28.52;48.35;100383.19;5068725;28;999;-62
2021/07/23 21:10:23;;;;;;;;;;;;;;;28.48;47.86;100383.69;5051599;28;1301;-61
2021/07/23 21:12:49;;;;;;;;;;;;;;;28.44;47.36;100388.53;5052262;28;1243;-61
2021/07/23 21:15:16;;;;;;;;;;;;;;;28.47;47.97;100390.03;5074192;28;1748;-62
2021/07/23 21:17:43;;;;;;;;;;;;;;;28.41;47.83;100388.84;5097878;28;1145;-62
2021/07/23 21:20:10;;;;;;;;;;;;;;;28.43;47.34;100388.66;5115585;27;1236;-61
2021/07/23 21:22:37;;;;;;;;;;;;;;;28.41;46.89;100383.47;5109464;28;1976;-62
2021/07/23 21:25:03;;;;;;;;;;;;;;;28.40;46.90;100387.16;5074788;28;1260;-62
2021/07/23 21:27:30;;;;;;;;;;;;;;;28.40;46.50;100383.63;5089325;28;1046;-62
2021/07/23 21:29:57;;;;;;;;;;;;;;;28.38;46.77;100380.28;5088994;28;1234;-62
2021/07/23 21:32:23;;;;;;;;;;;;;;;28.36;45.10;100387.63;5095659;28;1218;-61
2021/07/23 21:34:50;;;;;;;;;;;;;;;28.36;45.87;100382.28;5109496;28;1232;-61
2021/07/23 21:37:19;;;;;;;;;;;;;;;28.35;44.84;100383.28;5109257;28;928;-62
2021/07/23 21:39:45;;;;;;;;;;;;;;;28.35;45.66;100381.44;5109295;28;1224;-62
2021/07/23 21:42:12;;;;;;;;;;;;;;;28.35;45.36;100385.94;5090668;28;1462;-62
2021/07/23 21:44:39;;;;;;;;;;;;;;;28.33;44.37;100380.72;5109021;28;1910;-60
2021/07/23 21:47:06;;;;;;;;;;;;;;;28.33;44.21;100386.09;5109158;28;2149;-61
2021/07/23 21:49:33;;;;;;;;;;;;;;;28.39;44.84;100385.47;5101482;28;1545;-61
2021/07/23 21:51:59;;;;;;;;;;;;;;;28.39;44.69;100380.09;5088146;28;1555;-60
2021/07/23 21:54:28;;;;;;;;;;;;;;;28.41;44.76;100379.97;5088439;28;1522;-60
2021/07/23 21:56:59;;;;;;;;;;;;;;;28.37;44.88;100379.44;5088475;28;1592;-62
2021/07/23 21:59:26;;;;;;;;;;;;;;;28.37;44.34;100373.22;5088925;28;1271;-59
2021/07/23 22:01:53;;;;;;;;;;;;;;;28.44;44.15;100358.22;5083557;28;1043;-61
2021/07/23 22:04:20;;;;;;;;;;;;;;;28.39;44.25;100361.34;5067187;28;1917;-62
2021/07/23 22:06:46;;;;;;;;;;;;;;;28.38;43.70;100361.53;5088126;28;1134;-60
2021/07/23 22:09:13;;;;;;;;;;;;;;;28.37;43.98;100362.50;5087643;28;1763;-60
2021/07/23 22:11:40;;;;;;;;;;;;;;;28.35;43.62;100360.00;5087452;28;1532;-61
2021/07/23 22:14:06;;;;;;;;;;;;;;;28.32;43.76;100354.97;5069899;28;1945;-62
2021/07/23 22:16:33;;;;;;;;;;;;;;;28.30;43.65;100345.41;5087861;28;1107;-61
2021/07/23 22:19:00;;;;;;;;;;;;;;;28.27;43.81;100340.38;5070295;28;1979;-61
2021/07/23 22:21:27;;;;;;;;;;;;;;;28.24;43.92;100341.50;5088246;28;1084;-62
2021/07/23 22:23:53;;;;;;;;;;;;;;;28.26;44.27;100346.72;5088181;28;1918;-62
2021/07/23 22:26:20;;;;;;;;;;;;;;;28.27;43.39;100343.88;5069352;28;1619;-62
2021/07/23 22:28:47;;;;;;;;;;;;;;;28.30;43.18;100346.22;5069456;28;1245;-62
2021/07/23 22:31:13;;;;;;;;;;;;;;;28.27;43.32;100351.91;5069568;28;1030;-62
2021/07/23 22:33:40;;;;;;;;;;;;;;;28.29;43.87;100346.41;5087699;28;1322;-62
2021/07/23 22:36:07;;;;;;;;;;;;;;;28.28;46.65;100352.75;5087598;28;1131;-62
2021/07/23 22:38:34;;;;;;;;;;;;;;;28.29;47.41;100347.25;5088121;28;1169;-59
2021/07/23 22:41:03;;;;;;;;;;;;;;;28.32;47.93;100348.78;5087456;28;1222;-61
2021/07/23 22:43:30;;;;;;;;;;;;;;;28.28;48.94;100339.34;5086118;28;1933;-60
2021/07/23 22:45:57;;;;;;;;;;;;;;;28.34;49.25;100347.59;5052458;28;1199;-61
2021/07/23 22:48:24;;;;;;;;;;;;;;;28.31;49.37;100333.69;5087456;28;1173;-60
2021/07/23 22:50:51;;;;;;;;;;;;;;;28.30;48.82;100332.03;5052825;28;1468;-59
2021/07/23 22:53:19;;;;;;;;;;;;;;;28.28;48.32;100331.31;5052878;28;1326;-61
2021/07/23 22:55:45;;;;;;;;;;;;;;;28.29;47.61;100327.66;5087772;28;1138;-61
2021/07/23 22:58:12;;;;;;;;;;;;;;;28.23;47.00;100333.66;5087850;28;1090;-61
2021/07/23 23:00:39;;;;;;;;;;;;;;;28.19;46.89;100331.28;5068804;28;1351;-62
2021/07/23 23:03:06;;;;;;;;;;;;;;;28.18;46.78;100331.44;5069111;28;1906;-60
2021/07/23 23:05:33;;;;;;;;;;;;;;;28.20;46.50;100329.44;5087191;28;1211;-61
2021/07/23 23:07:59;;;;;;;;;;;;;;;28.16;46.60;100328.09;5087351;28;1243;-60
2021/07/23 23:10:26;;;;;;;;;;;;;;;28.16;46.48;100336.13;5068731;28;1200;-60
2021/07/23 23:12:53;;;;;;;;;;;;;;;28.17;46.49;100329.78;5068412;28;1465;-61
2021/07/23 23:15:20;;;;;;;;;;;;;;;28.15;46.71;100326.38;5087148;28;1204;-59
2021/07/23 23:17:47;;;;;;;;;;;;;;;28.13;46.68;100334.59;5069031;28;1748;-60
2021/07/23 23:20:14;;;;;;;;;;;;;;;28.15;47.15;100335.25;5086953;28;1168;-62
2021/07/23 23:22:40;;;;;;;;;;;;;;;28.15;47.35;100337.09;5068799;28;1427;-62
2021/07/23 23:25:07;;;;;;;;;;;;;;;28.14;47.87;100332.75;5086866;28;1913;-61
2021/07/23 23:27:34;;;;;;;;;;;;;;;28.13;48.27;100328.41;5087152;28;935;-60
2021/07/23 23:30:01;;;;;;;;;;;;;;;28.15;48.35;100327.22;5068018;28;1311;-61
2021/07/23 23:32:27;;;;;;;;;;;;;;;28.10;48.79;100323.34;5084857;28;1234;-61
2021/07/23 23:34:54;;;;;;;;;;;;;;;28.11;48.94;100322.38;5086700;28;1287;-62
2021/07/23 23:37:21;;;;;;;;;;;;;;;28.11;48.93;100325.91;5069026;28;1096;-61
2021/07/23 23:39:48;;;;;;;;;;;;;;;28.13;48.93;100320.38;5087000;28;1204;-61
2021/07/23 23:42:15;;;;;;;;;;;;;;;28.14;48.93;100314.88;5087401;28;1577;-61
2021/07/23 23:44:41;;;;;;;;;;;;;;;28.14;48.97;100316.69;5069998;28;1987;-62
2021/07/23 23:47:08;;;;;;;;;;;;;;;28.15;49.07;100316.53;5088572;28;1134;-62
2021/07/23 23:49:35;;;;;;;;;;;;;;;28.17;49.09;100308.34;5088156;28;1220;-61
2021/07/23 23:52:02;;;;;;;;;;;;;;;28.19;49.12;100306.34;5088284;28;1131;-61
2021/07/23 23:54:30;;;;;;;;;;;;;;;28.12;49.00;100307.97;5069394;28;1695;-60
2021/07/23 23:56:57;;;;;;;;;;;;;;;28.12;48.85;100305.28;5069982;28;1243;-61
2021/07/23 23:59:25;;;;;;;;;;;;;;;28.15;48.70;100304.97;5069813;28;1294;-62
